首页
METAR-TAF:

METAR-TAF

机场 :

麦克斯韦-甘特空军基地

蒙哥马利, 阿拉巴马州, 美国

纬度: 32-23N, 经度: 086-22W, 海拔: 51米

当前天气观测

该预报发布于21分钟前的00:23 UTC
风速8节,风向东南
温度 21°C
湿度 94%
气压 1012 hPa
能見度: 16.1公里
阴天层高于800英尺
小雨

METAR: KMXF 160023Z AUTO 14008KT 10SM -RA OVC008 21/20 A2989 RMK AO2 DZB08E12RAB12 SLP123

时间: 19:44 (00:44 UTC)

预报

该预报发布于29分钟前的00:15 UTC
预报有效从16日的 00点(UTC)到 17日的 01点(UTC)
风速6节,风向
能見度: 8000
阴天层高于700英尺, 积雨云.
小阵雨, 附近有雷暴
成为
从 16日的 03点(UTC)到 16日的 04点(UTC)
风速6节,风向
能見度: 8000
多云层高于600英尺
小阵雨
成为
从 16日的 05点(UTC)到 16日的 06点(UTC)
风速6节,风向西转西南
能見度: 6000
多云层高于400英尺
轻雾
成为
从 16日的 14点(UTC)到 16日的 15点(UTC)
风速12节,风向西转西北,有时为20节阵风
能见度10公里或以上
阴天层高于2000英尺
成为
从 16日的 18点(UTC)到 16日的 19点(UTC)
风速12节,风向西转西北,有时为20节阵风
能见度10公里或以上
少量云层高于2000英尺
成为
从 16日的 22点(UTC)到 16日的 23点(UTC)
风速6节,风向
能見度: 1611
天空无云

TAF: KMXF 160015Z 1600/1701 10006KT 8000 -SHRA VCTS OVC007CB QNH2983INS BECMG 1603/1604 10006KT 8000 -SHRA BKN006 QNH2985INS BECMG 1605/1606 24006KT 6000 BR BKN004 510153 QNH2984INS BECMG 1614/1615 30012G20KT 9999 NSW OVC020 QNH2989INS BECMG 1618/1619 30012G20KT 9999 FEW020 QNH2991INS BECMG 1622/1623 35006KT 9999 SKC QNH2996INS TX21/1600Z TN20/1603Z LAST NO AMDS AFT 1603 NEXT 1611

超过4000个机场的气象观测和天气预报(METAR&TAF报告)。

可查询的气象台以黄色和红色小点在地图上表示。

将鼠标移到小点上方,可查看气象台名称。

然后点击查看天气观测和预报。

如需切换地图:点击带黑十字的绿色按钮放大地图;点击带横线的绿色按钮缩小地图;或者点击绿色箭头查看邻近地区的地图。


METAR-TAF: